Time;durP1;ratioP1;P1;durP2;ratioP2;P2;SDS_P1;SDS_P2;PMS_P1;PMS_P2;Temp;Humidity;BMP_temperature;BMP_pressure;BME280_temperature;BME280_humidity;BME280_pressure;Samples;Min_cycle;Max_cycle;Signal;HPM_P1;HPM_P2
2024/01/31 00:01:42;;;;;;;10.25;1.85;;;5.90;99.90;;;;;;5038692;27;20041;-75
2024/01/31 00:04:08;;;;;;;9.70;2.10;;;5.90;99.90;;;;;;5039042;27;20041;-76
2024/01/31 00:06:33;;;;;;;7.78;2.22;;;5.90;99.90;;;;;;5032317;27;20052;-75
2024/01/31 00:09:00;;;;;;;8.18;2.03;;;5.90;99.90;;;;;;5048217;27;20049;-75
2024/01/31 00:11:29;;;;;;;9.90;2.42;;;5.90;99.90;;;;;;5046053;27;20128;-82
2024/01/31 00:13:58;;;;;;;9.57;2.25;;;5.80;99.90;;;;;;5040253;27;20053;-82
2024/01/31 00:16:24;;;;;;;11.77;2.05;;;5.80;99.90;;;;;;5038297;27;20039;-75
2024/01/31 00:18:50;;;;;;;10.32;2.17;;;5.80;99.90;;;;;;5039518;27;20048;-75
2024/01/31 00:21:17;;;;;;;11.85;2.15;;;5.70;99.90;;;;;;5041705;27;20041;-76
2024/01/31 00:23:42;;;;;;;7.05;2.00;;;5.80;99.90;;;;;;5047615;27;20045;-76
2024/01/31 00:26:08;;;;;;;9.68;2.10;;;5.80;99.90;;;;;;5045701;27;20033;-76
2024/01/31 00:28:34;;;;;;;11.60;2.83;;;5.80;99.90;;;;;;5033743;27;20045;-75
2024/01/31 00:31:03;;;;;;;10.07;2.53;;;5.80;99.90;;;;;;5024378;28;20102;-75
2024/01/31 00:33:29;;;;;;;10.13;2.60;;;5.70;99.90;;;;;;5053122;27;20458;-75
2024/01/31 00:35:55;;;;;;;6.53;2.17;;;5.70;99.90;;;;;;5034146;27;20046;-75
2024/01/31 00:38:21;;;;;;;10.05;2.00;;;5.70;99.90;;;;;;5037663;27;20042;-76
2024/01/31 00:40:47;;;;;;;12.13;2.38;;;5.70;99.90;;;;;;5027480;27;20098;-76
2024/01/31 00:43:13;;;;;;;9.32;2.30;;;5.70;99.90;;;;;;5021992;28;20514;-77
2024/01/31 00:45:39;;;;;;;9.77;2.33;;;5.70;99.90;;;;;;5021927;28;20049;-75
2024/01/31 00:48:05;;;;;;;6.05;2.20;;;5.70;99.90;;;;;;5032114;27;20033;-81
2024/01/31 00:50:31;;;;;;;10.90;2.03;;;5.70;99.90;;;;;;5023473;28;20093;-83
2024/01/31 00:52:56;;;;;;;12.48;2.45;;;5.70;99.90;;;;;;5024039;27;20742;-81
2024/01/31 00:55:22;;;;;;;11.07;3.00;;;5.70;99.90;;;;;;5041614;27;20048;-80
2024/01/31 00:57:49;;;;;;;8.25;2.10;;;5.70;99.90;;;;;;5043665;27;20037;-81
2024/01/31 01:00:15;;;;;;;9.27;2.33;;;5.70;99.90;;;;;;5038413;27;20052;-80
2024/01/31 01:02:41;;;;;;;7.50;1.80;;;5.70;99.90;;;;;;5036277;27;20332;-83
2024/01/31 01:05:10;;;;;;;9.50;2.22;;;5.70;99.90;;;;;;5038397;27;21084;-83
2024/01/31 01:07:40;;;;;;;6.57;1.67;;;5.70;99.90;;;;;;5046625;27;20490;-81
2024/01/31 01:10:11;;;;;;;6.63;1.77;;;5.70;99.90;;;;;;5038988;27;20071;-81
2024/01/31 01:12:37;;;;;;;7.30;1.60;;;5.70;99.90;;;;;;5037630;27;20319;-83
2024/01/31 01:15:04;;;;;;;6.40;1.88;;;5.70;99.90;;;;;;5024958;28;20052;-77
2024/01/31 01:17:30;;;;;;;9.93;1.95;;;5.50;99.90;;;;;;5042210;27;20052;-74
2024/01/31 01:19:56;;;;;;;7.78;2.10;;;5.60;99.90;;;;;;5041730;27;20130;-77
2024/01/31 01:22:22;;;;;;;9.23;1.80;;;5.70;99.90;;;;;;5028226;28;20144;-83
2024/01/31 01:24:47;;;;;;;8.02;1.90;;;5.60;99.90;;;;;;5042075;27;20131;-82
2024/01/31 01:27:13;;;;;;;8.85;1.90;;;5.60;99.90;;;;;;5025823;27;20087;-82
2024/01/31 01:29:39;;;;;;;6.82;1.73;;;5.70;99.90;;;;;;5039088;27;20483;-74
2024/01/31 01:32:05;;;;;;;6.10;1.50;;;5.60;99.90;;;;;;5023881;27;20037;-75
2024/01/31 01:34:31;;;;;;;6.47;1.60;;;5.60;99.90;;;;;;5027174;28;20049;-75
2024/01/31 01:36:56;;;;;;;8.52;1.85;;;5.60;99.90;;;;;;5025267;27;20037;-75
2024/01/31 01:39:22;;;;;;;7.57;1.63;;;5.60;99.90;;;;;;5016008;28;20095;-75
2024/01/31 01:41:51;;;;;;;6.82;1.75;;;5.60;99.90;;;;;;5026707;28;20044;-75
2024/01/31 01:44:17;;;;;;;7.60;1.77;;;5.60;99.90;;;;;;5035684;27;20037;-76
2024/01/31 01:46:44;;;;;;;8.48;1.80;;;5.60;99.90;;;;;;5053684;27;20047;-76
2024/01/31 01:49:12;;;;;;;8.85;1.90;;;5.60;99.90;;;;;;5025159;28;20036;-75
2024/01/31 01:51:39;;;;;;;11.13;2.17;;;5.70;99.90;;;;;;5039931;27;20045;-75
2024/01/31 01:54:06;;;;;;;6.65;1.70;;;5.60;99.90;;;;;;5040611;27;20100;-81
2024/01/31 01:56:33;;;;;;;6.07;1.17;;;5.60;99.90;;;;;;5030446;27;20037;-75
2024/01/31 01:59:03;;;;;;;7.05;1.50;;;5.60;99.90;;;;;;5044727;27;20045;-75
2024/01/31 02:01:29;;;;;;;10.80;2.08;;;5.60;99.90;;;;;;5017887;28;20136;-76
2024/01/31 02:03:56;;;;;;;5.55;2.00;;;5.60;99.90;;;;;;5035151;27;20566;-75
2024/01/31 02:06:24;;;;;;;7.35;1.73;;;5.60;99.90;;;;;;5030191;27;20121;-75
2024/01/31 02:08:50;;;;;;;6.75;1.77;;;5.60;99.90;;;;;;5018008;28;20045;-76
2024/01/31 02:11:16;;;;;;;4.75;1.70;;;5.60;99.90;;;;;;5034589;27;20638;-76
2024/01/31 02:13:41;;;;;;;9.93;1.90;;;5.60;99.90;;;;;;5033330;27;20057;-76
2024/01/31 02:16:07;;;;;;;9.18;1.55;;;5.60;99.90;;;;;;5023147;27;20063;-74
2024/01/31 02:18:33;;;;;;;5.57;1.60;;;5.60;99.90;;;;;;5044999;27;20099;-76
2024/01/31 02:20:59;;;;;;;9.27;1.83;;;5.50;99.90;;;;;;5036564;27;20495;-75
2024/01/31 02:23:25;;;;;;;8.10;1.60;;;5.60;99.90;;;;;;5024218;27;20120;-76
2024/01/31 02:25:51;;;;;;;5.05;1.10;;;5.50;99.90;;;;;;5032003;27;20057;-74
2024/01/31 02:28:17;;;;;;;4.95;1.30;;;5.50;99.90;;;;;;5032412;27;20842;-75
2024/01/31 02:30:43;;;;;;;8.57;1.30;;;5.50;99.90;;;;;;5041489;27;20076;-75
2024/01/31 02:33:09;;;;;;;5.53;1.52;;;5.50;99.90;;;;;;5021683;27;20076;-75
2024/01/31 02:35:35;;;;;;;7.82;1.45;;;5.40;99.90;;;;;;5022146;28;20084;-75
2024/01/31 02:38:07;;;;;;;8.55;1.35;;;5.50;99.90;;;;;;5023920;27;20106;-77
2024/01/31 02:40:32;;;;;;;7.68;1.30;;;5.40;99.90;;;;;;5040217;27;20065;-74
2024/01/31 02:42:59;;;;;;;5.55;1.50;;;5.40;99.90;;;;;;5040655;27;20080;-75
2024/01/31 02:45:27;;;;;;;7.10;1.42;;;5.40;99.90;;;;;;5039587;27;20052;-75
2024/01/31 02:47:53;;;;;;;9.27;1.70;;;5.20;99.90;;;;;;5027727;27;20037;-75
2024/01/31 02:50:19;;;;;;;6.53;1.23;;;5.30;99.90;;;;;;5037831;27;20446;-75
2024/01/31 02:52:45;;;;;;;4.55;1.17;;;5.20;99.90;;;;;;5025291;28;20045;-75
2024/01/31 02:55:11;;;;;;;7.13;1.20;;;5.10;99.90;;;;;;5020136;27;20072;-82
2024/01/31 02:57:37;;;;;;;4.45;1.15;;;5.10;99.90;;;;;;5036611;27;20036;-83
2024/01/31 03:00:06;;;;;;;3.25;1.02;;;5.00;99.90;;;;;;5042380;27;20419;-76
2024/01/31 03:02:32;;;;;;;5.07;1.33;;;5.00;99.90;;;;;;5021634;27;20045;-76
2024/01/31 03:04:58;;;;;;;5.10;1.02;;;5.10;99.90;;;;;;5018842;28;20060;-82
2024/01/31 03:07:24;;;;;;;5.85;1.25;;;5.00;99.90;;;;;;5036813;27;20526;-82
2024/01/31 03:09:49;;;;;;;8.38;1.52;;;4.90;99.90;;;;;;5024200;27;20496;-83
2024/01/31 03:12:15;;;;;;;8.10;1.27;;;5.00;99.90;;;;;;5040296;27;20088;-76
2024/01/31 03:14:42;;;;;;;5.68;1.17;;;5.00;99.90;;;;;;5037766;27;20095;-76
2024/01/31 03:17:07;;;;;;;5.95;1.50;;;5.10;99.90;;;;;;5043698;27;20503;-76
2024/01/31 03:19:35;;;;;;;5.45;1.20;;;5.10;99.90;;;;;;5056770;27;20080;-76
2024/01/31 03:22:01;;;;;;;8.98;1.50;;;5.10;99.90;;;;;;5019174;27;20045;-76
2024/01/31 03:24:28;;;;;;;7.07;1.50;;;5.10;99.90;;;;;;5022531;27;20041;-76
2024/01/31 03:26:53;;;;;;;8.65;2.10;;;5.10;99.90;;;;;;5034666;27;20489;-76
2024/01/31 03:29:19;;;;;;;7.35;1.45;;;5.10;99.90;;;;;;5020907;28;20033;-75
2024/01/31 03:31:46;;;;;;;7.57;1.92;;;5.10;99.90;;;;;;5010871;27;20046;-76
2024/01/31 03:34:12;;;;;;;9.07;1.50;;;5.10;99.90;;;;;;5037965;27;20052;-76
2024/01/31 03:36:39;;;;;;;5.80;1.60;;;5.10;99.90;;;;;;5024401;27;20049;-76
2024/01/31 03:39:04;;;;;;;7.20;1.25;;;5.10;99.90;;;;;;5039668;27;20041;-76
2024/01/31 03:41:33;;;;;;;5.50;1.25;;;5.10;99.90;;;;;;5024442;28;20044;-76
2024/01/31 03:43:59;;;;;;;7.72;1.38;;;5.10;99.90;;;;;;5025894;27;20044;-76
2024/01/31 03:46:25;;;;;;;6.57;1.00;;;5.20;99.90;;;;;;5040306;27;20089;-76
2024/01/31 03:48:51;;;;;;;10.80;1.65;;;5.10;99.90;;;;;;5019041;28;20061;-76
2024/01/31 03:51:24;;;;;;;7.93;1.23;;;5.10;99.90;;;;;;5041624;27;20056;-82
2024/01/31 03:53:50;;;;;;;6.80;1.00;;;5.10;99.90;;;;;;5040261;27;20048;-82
2024/01/31 03:56:16;;;;;;;5.57;0.90;;;5.10;99.90;;;;;;5025800;28;20041;-75
2024/01/31 03:58:43;;;;;;;5.68;0.93;;;5.10;99.90;;;;;;5022077;27;20041;-84
2024/01/31 04:01:14;;;;;;;5.55;0.88;;;5.10;99.90;;;;;;5023005;27;20061;-77
2024/01/31 04:03:39;;;;;;;3.80;0.70;;;5.10;99.90;;;;;;5038185;27;20129;-74
2024/01/31 04:06:05;;;;;;;3.28;0.65;;;5.00;99.90;;;;;;5027892;27;20526;-74
2024/01/31 04:08:31;;;;;;;3.85;0.80;;;5.00;99.90;;;;;;5043416;27;20056;-77
2024/01/31 04:10:57;;;;;;;6.07;1.30;;;5.00;99.90;;;;;;5023254;28;20037;-81
2024/01/31 04:13:23;;;;;;;3.33;0.85;;;4.90;99.90;;;;;;5036466;27;20047;-81
2024/01/31 04:15:48;;;;;;;4.80;1.73;;;4.80;99.90;;;;;;5047006;27;20495;-83
2024/01/31 04:18:14;;;;;;;6.13;2.40;;;4.90;99.90;;;;;;5042441;27;20487;-82
2024/01/31 04:20:41;;;;;;;8.55;3.10;;;4.80;99.90;;;;;;5039160;27;20051;-82
2024/01/31 04:23:07;;;;;;;9.93;2.10;;;4.80;99.90;;;;;;5037661;27;20045;-82
2024/01/31 04:25:34;;;;;;;7.53;1.70;;;4.80;99.90;;;;;;5024554;28;20525;-76
2024/01/31 04:28:02;;;;;;;7.55;1.40;;;4.80;99.90;;;;;;5032391;28;20045;-75
2024/01/31 04:30:28;;;;;;;6.20;1.33;;;4.90;99.90;;;;;;5045133;27;20048;-75
2024/01/31 04:32:54;;;;;;;6.95;1.75;;;4.80;99.90;;;;;;5033542;27;20131;-82
2024/01/31 04:35:20;;;;;;;7.28;1.92;;;4.90;99.90;;;;;;5050223;27;20032;-82
2024/01/31 04:37:48;;;;;;;7.13;2.15;;;4.90;99.90;;;;;;5026641;27;20045;-82
2024/01/31 04:40:15;;;;;;;4.95;2.03;;;4.90;99.90;;;;;;5053258;27;20455;-83
2024/01/31 04:42:41;;;;;;;6.38;1.67;;;4.90;99.90;;;;;;5030590;28;20432;-75
2024/01/31 04:45:08;;;;;;;7.57;1.90;;;4.90;99.90;;;;;;5023644;27;20076;-76
2024/01/31 04:47:34;;;;;;;6.55;1.92;;;4.80;99.90;;;;;;5023032;28;20523;-75
2024/01/31 04:50:00;;;;;;;8.35;2.05;;;4.80;99.90;;;;;;5037021;27;20081;-76
2024/01/31 04:52:28;;;;;;;5.03;2.08;;;4.80;99.90;;;;;;5024308;28;20510;-75
2024/01/31 04:54:55;;;;;;;6.32;1.58;;;4.80;99.90;;;;;;5044853;27;20107;-75
2024/01/31 04:57:21;;;;;;;5.22;1.48;;;4.90;99.90;;;;;;5026286;28;20053;-75
2024/01/31 04:59:47;;;;;;;7.32;1.80;;;4.70;99.90;;;;;;5018857;27;20048;-75
2024/01/31 05:02:13;;;;;;;3.55;1.42;;;4.70;99.90;;;;;;5026026;27;20104;-75
2024/01/31 05:04:39;;;;;;;8.07;1.65;;;4.60;99.90;;;;;;5023835;28;20060;-75
2024/01/31 05:07:05;;;;;;;6.90;1.45;;;4.60;99.90;;;;;;5044240;27;20084;-82
2024/01/31 05:09:32;;;;;;;5.45;1.60;;;4.50;99.90;;;;;;5058292;27;20047;-82
2024/01/31 05:11:58;;;;;;;4.35;1.20;;;4.50;99.90;;;;;;5025687;27;20565;-75
2024/01/31 05:14:24;;;;;;;4.68;1.17;;;4.50;99.90;;;;;;5033740;27;20474;-75
2024/01/31 05:16:49;;;;;;;4.60;1.48;;;4.40;99.90;;;;;;5020630;28;20355;-75
2024/01/31 05:19:16;;;;;;;6.47;1.25;;;4.40;99.90;;;;;;5023505;28;20041;-75
2024/01/31 05:21:48;;;;;;;3.75;1.10;;;4.40;99.90;;;;;;5042046;27;20045;-82
2024/01/31 05:24:15;;;;;;;7.10;1.40;;;4.30;99.90;;;;;;5049527;27;20060;-82
2024/01/31 05:26:43;;;;;;;5.28;1.23;;;4.30;99.90;;;;;;5028954;28;20053;-82
2024/01/31 05:29:20;;;;;;;7.88;1.42;;;4.30;99.90;;;;;;5022745;28;20041;-75
2024/01/31 05:31:46;;;;;;;6.10;1.85;;;4.30;99.90;;;;;;5023196;28;20392;-74
2024/01/31 05:34:12;;;;;;;6.30;1.42;;;4.20;99.90;;;;;;5021419;28;20109;-74
2024/01/31 05:36:38;;;;;;;6.65;1.80;;;4.20;99.90;;;;;;5036824;28;20039;-75
2024/01/31 05:39:04;;;;;;;9.73;1.67;;;4.20;99.90;;;;;;5034756;28;20037;-75
2024/01/31 05:41:30;;;;;;;5.63;1.48;;;4.20;99.90;;;;;;5026299;28;20045;-75
2024/01/31 05:43:56;;;;;;;6.47;1.38;;;4.30;99.90;;;;;;5020648;28;20065;-76
2024/01/31 05:46:22;;;;;;;8.82;1.70;;;4.30;99.90;;;;;;5030236;28;20037;-83
2024/01/31 05:48:48;;;;;;;6.50;1.48;;;4.30;99.90;;;;;;5032989;28;20082;-76
2024/01/31 05:51:14;;;;;;;8.77;1.80;;;4.40;99.90;;;;;;5044337;27;20444;-75
2024/01/31 05:53:40;;;;;;;5.95;1.50;;;4.30;99.90;;;;;;5024225;28;20051;-82
2024/01/31 05:56:06;;;;;;;8.50;2.38;;;4.40;99.90;;;;;;5037801;27;20049;-83
2024/01/31 05:58:32;;;;;;;7.20;1.90;;;4.40;99.90;;;;;;5055146;27;20043;-82
2024/01/31 06:00:57;;;;;;;7.15;2.33;;;4.40;99.90;;;;;;5049099;27;20048;-83
2024/01/31 06:03:25;;;;;;;6.50;2.17;;;4.50;99.90;;;;;;5049647;27;20037;-82
2024/01/31 06:05:54;;;;;;;8.18;2.33;;;4.50;99.90;;;;;;5027770;27;20522;-83
2024/01/31 06:08:23;;;;;;;5.47;1.60;;;4.50;99.90;;;;;;5038035;27;20090;-83
2024/01/31 06:10:53;;;;;;;6.07;1.67;;;4.50;99.90;;;;;;5040339;27;20044;-75
2024/01/31 06:13:19;;;;;;;5.10;1.65;;;4.50;99.90;;;;;;5019874;28;20516;-75
2024/01/31 06:15:45;;;;;;;8.68;1.63;;;4.60;99.90;;;;;;5040046;27;20139;-76
2024/01/31 06:18:11;;;;;;;5.55;1.70;;;4.60;99.90;;;;;;5026970;28;20049;-75
2024/01/31 06:20:40;;;;;;;9.60;2.20;;;4.60;99.90;;;;;;5026626;27;20068;-75
2024/01/31 06:23:09;;;;;;;8.27;2.37;;;4.70;99.90;;;;;;5152612;27;20045;-75
2024/01/31 06:25:38;;;;;;;8.00;1.80;;;4.70;99.90;;;;;;5058472;27;20048;-75
2024/01/31 06:28:07;;;;;;;6.40;2.20;;;4.70;99.90;;;;;;5026972;27;20292;-75
2024/01/31 06:30:44;;;;;;;5.50;1.80;;;4.70;99.90;;;;;;5040856;27;20075;-74
2024/01/31 06:33:10;;;;;;;8.88;2.45;;;4.70;99.90;;;;;;5033390;27;20049;-75
2024/01/31 06:35:39;;;;;;;7.90;2.55;;;4.70;99.90;;;;;;5034874;27;20105;-84
2024/01/31 06:38:05;;;;;;;6.25;1.80;;;4.80;99.90;;;;;;5023486;27;20031;-75
2024/01/31 06:40:31;;;;;;;7.43;2.30;;;4.80;99.90;;;;;;5019749;27;20565;-75
2024/01/31 06:42:58;;;;;;;8.65;2.17;;;4.80;99.90;;;;;;5027988;28;20040;-75
2024/01/31 06:45:26;;;;;;;8.00;2.15;;;4.90;99.90;;;;;;5046384;27;20037;-75
2024/01/31 06:47:52;;;;;;;8.85;2.85;;;4.80;99.90;;;;;;5022635;27;20056;-76
2024/01/31 06:50:18;;;;;;;7.18;2.30;;;4.80;99.90;;;;;;5048138;27;20448;-76
2024/01/31 06:52:46;;;;;;;6.82;2.17;;;4.80;99.90;;;;;;5034202;28;20093;-78
2024/01/31 06:55:15;;;;;;;6.95;2.38;;;4.80;99.90;;;;;;5025889;27;20382;-78
2024/01/31 06:57:42;;;;;;;7.25;2.55;;;4.90;99.90;;;;;;5034276;27;20052;-78
2024/01/31 07:00:12;;;;;;;8.80;2.38;;;4.90;99.90;;;;;;5034548;27;20037;-78
2024/01/31 07:02:38;;;;;;;6.32;2.03;;;4.90;99.90;;;;;;5037486;27;20073;-78
2024/01/31 07:05:04;;;;;;;10.15;2.40;;;4.90;99.90;;;;;;5033296;27;20045;-78
2024/01/31 07:07:35;;;;;;;7.40;2.30;;;4.90;99.90;;;;;;5022724;27;20045;-77
2024/01/31 07:10:04;;;;;;;8.57;3.05;;;5.00;99.90;;;;;;5038776;27;20044;-78
2024/01/31 07:12:30;;;;;;;6.28;1.92;;;4.90;99.90;;;;;;5037869;27;20052;-77
2024/01/31 07:14:56;;;;;;;7.28;2.38;;;4.90;99.90;;;;;;5040531;27;20041;-78
2024/01/31 07:17:22;;;;;;;7.18;1.83;;;5.00;99.90;;;;;;5037747;27;20036;-78
2024/01/31 07:19:48;;;;;;;10.70;2.50;;;5.00;99.90;;;;;;5043520;27;20049;-77
2024/01/31 07:22:14;;;;;;;8.35;2.17;;;5.00;99.90;;;;;;5045925;27;20106;-74
2024/01/31 07:24:41;;;;;;;6.75;2.42;;;5.00;99.90;;;;;;5036397;27;20040;-74
2024/01/31 07:27:07;;;;;;;8.20;2.15;;;4.90;99.90;;;;;;5040772;27;20033;-74
2024/01/31 07:29:33;;;;;;;7.03;1.90;;;4.90;99.90;;;;;;5048539;27;20052;-74
2024/01/31 07:31:59;;;;;;;10.60;2.40;;;5.00;99.90;;;;;;5036646;27;20499;-73
2024/01/31 07:34:25;;;;;;;6.82;2.50;;;4.90;99.90;;;;;;5020314;28;20044;-73
2024/01/31 07:36:50;;;;;;;11.25;2.50;;;4.90;99.90;;;;;;5042985;27;20214;-77
2024/01/31 07:39:17;;;;;;;8.88;2.40;;;4.90;99.90;;;;;;5026183;27;20033;-77
2024/01/31 07:41:46;;;;;;;5.05;2.05;;;5.00;99.90;;;;;;5043410;27;20067;-78
2024/01/31 07:44:12;;;;;;;8.45;2.45;;;5.00;99.90;;;;;;5051344;27;20519;-73
2024/01/31 07:46:37;;;;;;;9.80;2.53;;;5.00;99.90;;;;;;5038404;27;20056;-73
2024/01/31 07:49:08;;;;;;;9.25;2.65;;;5.00;99.90;;;;;;5047423;27;20449;-76
2024/01/31 07:51:40;;;;;;;;;;;5.00;99.90;;;;;;5039236;27;20072;-77
2024/01/31 07:54:06;;;;;;;6.75;2.95;;;5.00;99.90;;;;;;5024056;27;19921;-72
2024/01/31 07:56:32;;;;;;;8.80;2.78;;;5.00;99.90;;;;;;5051301;27;20104;-72
2024/01/31 07:58:57;;;;;;;11.32;3.03;;;5.00;99.90;;;;;;5048780;27;20052;-72
2024/01/31 08:01:23;;;;;;;10.23;3.15;;;5.00;99.90;;;;;;5023565;28;20675;-72
2024/01/31 08:03:49;;;;;;;9.02;3.75;;;5.00;99.90;;;;;;5037733;27;20041;-71
2024/01/31 08:06:15;;;;;;;8.02;3.95;;;5.00;99.90;;;;;;5039886;27;20068;-72
2024/01/31 08:08:42;;;;;;;7.20;3.22;;;5.00;99.90;;;;;;5051123;27;20049;-71
2024/01/31 08:11:08;;;;;;;8.25;3.83;;;5.00;99.90;;;;;;5036041;27;20372;-72
2024/01/31 08:13:34;;;;;;;9.80;4.25;;;5.00;99.90;;;;;;5034658;27;20044;-72
2024/01/31 08:16:00;;;;;;;8.50;4.30;;;5.00;99.90;;;;;;5019313;28;20181;-72
2024/01/31 08:18:26;;;;;;;9.35;4.47;;;5.00;99.90;;;;;;5035859;27;20421;-77
2024/01/31 08:20:52;;;;;;;9.60;5.25;;;5.00;99.90;;;;;;5018748;28;20042;-72
2024/01/31 08:23:18;;;;;;;10.77;5.25;;;5.00;99.90;;;;;;5039358;27;20041;-72
2024/01/31 08:25:44;;;;;;;9.43;5.20;;;5.10;99.90;;;;;;5025981;27;20044;-72
2024/01/31 08:28:09;;;;;;;9.57;5.90;;;5.10;99.90;;;;;;5062359;27;20053;-72
2024/01/31 08:30:35;;;;;;;12.23;6.03;;;5.10;99.90;;;;;;5031437;27;20042;-72
2024/01/31 08:33:02;;;;;;;10.13;5.85;;;5.10;99.90;;;;;;5050946;27;20040;-72
2024/01/31 08:35:28;;;;;;;8.73;6.32;;;5.20;99.90;;;;;;5025564;28;20120;-73
2024/01/31 08:37:55;;;;;;;8.38;6.22;;;5.20;99.90;;;;;;5041935;27;20132;-73
2024/01/31 08:40:21;;;;;;;8.38;6.60;;;5.20;99.90;;;;;;5025799;28;20171;-72
2024/01/31 08:42:46;;;;;;;8.38;6.13;;;5.20;99.90;;;;;;5022123;27;20041;-77
2024/01/31 08:45:13;;;;;;;9.10;6.32;;;5.20;99.90;;;;;;5054035;27;20041;-77
2024/01/31 08:47:39;;;;;;;9.18;5.65;;;5.20;99.90;;;;;;5022149;27;20048;-77
2024/01/31 08:50:05;;;;;;;7.88;6.40;;;5.30;99.90;;;;;;5043919;27;20048;-72
2024/01/31 08:52:32;;;;;;;9.50;6.18;;;5.30;99.90;;;;;;5032051;28;20049;-72
2024/01/31 08:54:59;;;;;;;7.78;5.95;;;5.30;99.90;;;;;;5022853;27;20502;-77
2024/01/31 08:57:24;;;;;;;9.32;6.60;;;5.30;99.90;;;;;;5024957;27;20090;-77
2024/01/31 08:59:50;;;;;;;7.15;5.20;;;5.40;99.90;;;;;;5037961;27;20172;-77
2024/01/31 09:02:16;;;;;;;9.13;5.57;;;5.40;99.90;;;;;;5023800;28;20044;-77
2024/01/31 09:04:42;;;;;;;8.93;5.53;;;5.40;99.90;;;;;;5025189;27;20074;-77
2024/01/31 09:07:08;;;;;;;8.25;5.65;;;5.40;99.90;;;;;;5042689;27;20391;-72
2024/01/31 09:09:38;;;;;;;10.13;6.60;;;5.40;99.90;;;;;;5024793;27;20061;-72
2024/01/31 09:12:05;;;;;;;11.68;6.38;;;5.50;99.90;;;;;;5021794;28;20045;-72
2024/01/31 09:14:32;;;;;;;9.43;6.35;;;5.50;99.90;;;;;;5039076;27;20083;-72
2024/01/31 09:16:58;;;;;;;9.95;6.82;;;5.50;99.90;;;;;;5030275;28;20544;-72
2024/01/31 09:19:24;;;;;;;7.72;5.60;;;5.60;99.90;;;;;;5025078;27;20084;-72
2024/01/31 09:21:51;;;;;;;8.05;5.85;;;5.60;99.90;;;;;;5026781;28;20040;-72
2024/01/31 09:24:17;;;;;;;10.20;5.85;;;5.60;99.90;;;;;;5037274;27;20384;-76
2024/01/31 09:26:43;;;;;;;10.00;6.97;;;5.70;99.90;;;;;;5023870;28;20049;-77
2024/01/31 09:29:09;;;;;;;7.13;6.43;;;5.70;99.90;;;;;;5034197;27;20105;-73
2024/01/31 09:31:35;;;;;;;7.18;6.25;;;5.80;99.90;;;;;;5048543;27;20039;-72
2024/01/31 09:34:01;;;;;;;7.93;6.50;;;5.70;99.90;;;;;;5026033;27;20063;-72
2024/01/31 09:36:27;;;;;;;7.75;6.30;;;5.80;99.90;;;;;;5046967;27;20037;-73
2024/01/31 09:38:53;;;;;;;8.38;6.07;;;5.90;99.90;;;;;;5027691;27;20037;-77
2024/01/31 09:41:19;;;;;;;9.23;6.35;;;5.90;99.90;;;;;;5040171;27;20135;-72
2024/01/31 09:43:45;;;;;;;6.88;6.18;;;5.90;99.90;;;;;;5027205;27;20124;-72
2024/01/31 09:46:12;;;;;;;7.90;6.97;;;6.00;99.90;;;;;;5035051;27;20525;-72
2024/01/31 09:48:39;;;;;;;7.18;6.45;;;6.00;99.90;;;;;;5031553;27;20083;-73
2024/01/31 09:51:06;;;;;;;8.55;6.35;;;6.00;99.90;;;;;;5049341;27;20041;-72
2024/01/31 09:53:36;;;;;;;7.55;6.78;;;6.10;99.90;;;;;;5025158;28;20112;-72
2024/01/31 09:56:02;;;;;;;8.55;5.68;;;6.10;99.90;;;;;;5038328;27;20048;-72
2024/01/31 09:58:28;;;;;;;7.05;6.35;;;6.10;99.90;;;;;;5039485;27;20187;-72
2024/01/31 10:00:55;;;;;;;10.10;6.43;;;6.10;99.90;;;;;;5046808;27;20542;-72
2024/01/31 10:03:20;;;;;;;8.13;6.00;;;6.10;99.90;;;;;;5025084;28;21169;-72
2024/01/31 10:05:46;;;;;;;8.93;6.28;;;6.10;99.90;;;;;;5035125;27;20491;-72
2024/01/31 10:08:13;;;;;;;6.35;5.32;;;6.20;99.90;;;;;;5040082;27;20509;-72
2024/01/31 10:10:38;;;;;;;7.28;6.03;;;6.20;99.90;;;;;;5041235;27;20037;-72
2024/01/31 10:13:08;;;;;;;8.00;5.47;;;6.30;99.90;;;;;;5039332;27;20045;-72
2024/01/31 10:15:33;;;;;;;7.82;5.88;;;6.20;99.90;;;;;;5030700;27;20039;-72
2024/01/31 10:17:59;;;;;;;9.80;6.35;;;6.30;99.90;;;;;;5045071;27;20048;-77
2024/01/31 10:20:25;;;;;;;7.47;5.97;;;6.20;99.90;;;;;;5024691;28;20089;-77
2024/01/31 10:22:51;;;;;;;9.93;6.68;;;6.20;99.90;;;;;;5045461;27;20054;-72
2024/01/31 10:25:18;;;;;;;8.07;6.43;;;6.30;99.90;;;;;;5048950;27;20419;-72
2024/01/31 10:27:47;;;;;;;6.38;5.72;;;6.30;99.90;;;;;;5030393;28;20087;-72
2024/01/31 10:30:15;;;;;;;7.60;6.40;;;6.30;99.90;;;;;;5029955;27;20092;-72
2024/01/31 10:32:45;;;;;;;8.35;6.30;;;6.30;99.90;;;;;;5027290;27;20567;-72
2024/01/31 10:35:12;;;;;;;8.60;6.57;;;6.30;99.90;;;;;;5039956;27;20056;-72
2024/01/31 10:37:38;;;;;;;7.93;6.53;;;6.40;99.90;;;;;;5025550;27;20142;-72
2024/01/31 10:40:09;;;;;;;7.65;6.25;;;6.40;99.90;;;;;;5026245;27;20045;-71
2024/01/31 10:42:36;;;;;;;8.93;6.57;;;6.40;99.90;;;;;;5040725;27;20509;-74
2024/01/31 10:45:02;;;;;;;7.85;6.60;;;6.40;99.90;;;;;;5041847;27;20394;-74
2024/01/31 10:47:28;;;;;;;7.97;6.47;;;6.40;99.90;;;;;;5021768;27;20456;-72
2024/01/31 10:49:54;;;;;;;9.82;6.65;;;6.40;99.90;;;;;;5027880;27;20045;-73
2024/01/31 10:52:24;;;;;;;9.35;7.07;;;6.40;99.90;;;;;;5045326;27;20033;-73
2024/01/31 10:54:54;;;;;;;9.90;6.53;;;6.40;99.90;;;;;;5047255;27;20045;-73
2024/01/31 10:57:20;;;;;;;;;;;6.40;99.90;;;;;;5040808;27;20794;-77
2024/01/31 10:59:49;;;;;;;8.52;7.63;;;6.50;99.90;;;;;;5134971;27;19970;-77
2024/01/31 11:02:15;;;;;;;8.80;7.90;;;6.40;99.90;;;;;;5043031;27;20055;-72
2024/01/31 11:04:44;;;;;;;9.02;8.13;;;6.50;99.90;;;;;;5047659;27;20045;-72
2024/01/31 11:07:19;;;;;;;13.45;8.30;;;6.50;99.90;;;;;;5042126;27;20048;-72
2024/01/31 11:09:47;;;;;;;9.40;8.50;;;6.50;99.90;;;;;;5038250;27;20045;-73
2024/01/31 11:12:17;;;;;;;9.98;8.45;;;6.60;99.90;;;;;;5036349;27;20049;-73
2024/01/31 11:14:47;;;;;;;9.00;8.10;;;6.60;99.90;;;;;;5046025;27;20045;-72
2024/01/31 11:17:19;;;;;;;8.90;8.00;;;6.60;99.90;;;;;;5042546;27;20049;-73
2024/01/31 11:19:59;;;;;;;11.85;8.40;;;6.60;99.90;;;;;;5037641;27;20485;-72
2024/01/31 11:22:25;;;;;;;10.30;9.18;;;6.60;99.90;;;;;;5023440;27;20032;-72
2024/01/31 11:24:56;;;;;;;9.57;8.63;;;6.60;99.90;;;;;;5039439;27;20628;-72
2024/01/31 11:27:22;;;;;;;10.40;9.40;;;6.60;99.90;;;;;;5037699;27;20093;-72
2024/01/31 11:29:51;;;;;;;13.60;10.80;;;6.60;99.90;;;;;;5023454;27;20395;-71
2024/01/31 11:32:24;;;;;;;10.75;9.65;;;6.60;99.90;;;;;;5021814;27;20041;-74
2024/01/31 11:35:00;;;;;;;10.25;9.27;;;6.70;99.90;;;;;;5029988;27;20542;-74
2024/01/31 11:37:26;;;;;;;11.13;10.02;;;6.70;99.90;;;;;;5049079;27;20037;-80
2024/01/31 11:39:52;;;;;;;11.63;10.52;;;6.60;99.90;;;;;;5023202;28;20044;-74
2024/01/31 11:42:18;;;;;;;11.90;10.77;;;6.70;99.90;;;;;;5037037;27;20041;-74
2024/01/31 11:44:44;;;;;;;11.52;10.43;;;6.70;99.90;;;;;;5039272;27;20411;-72
2024/01/31 11:47:10;;;;;;;12.68;11.00;;;6.70;99.90;;;;;;5023858;27;20513;-74
2024/01/31 11:49:36;;;;;;;13.02;11.63;;;6.60;99.90;;;;;;5018327;28;20091;-72
2024/01/31 11:52:03;;;;;;;14.52;13.13;;;6.60;99.90;;;;;;5043025;27;20154;-73
2024/01/31 11:54:30;;;;;;;12.38;11.18;;;6.60;99.90;;;;;;5041646;27;20448;-77
2024/01/31 11:56:56;;;;;;;13.23;11.93;;;6.70;99.90;;;;;;5045509;27;20105;-78
2024/01/31 11:59:22;;;;;;;12.48;11.27;;;6.70;99.90;;;;;;5041550;27;20039;-73
2024/01/31 12:01:48;;;;;;;14.43;13.02;;;6.70;99.90;;;;;;5043506;27;20112;-72
2024/01/31 12:04:14;;;;;;;12.85;11.63;;;6.70;99.90;;;;;;5042011;27;20056;-73
2024/01/31 12:06:40;;;;;;;12.93;11.57;;;6.70;99.90;;;;;;5041120;27;20049;-73
2024/01/31 12:09:06;;;;;;;13.27;11.88;;;6.70;99.90;;;;;;5044767;27;20089;-73
2024/01/31 12:11:32;;;;;;;13.02;11.82;;;6.70;99.90;;;;;;5023074;28;20053;-72
2024/01/31 12:13:58;;;;;;;14.57;13.07;;;6.70;99.90;;;;;;5024684;27;20502;-78
2024/01/31 12:16:24;;;;;;;12.75;11.52;;;6.80;99.90;;;;;;5036464;27;20116;-78
2024/01/31 12:19:02;;;;;;;12.57;11.40;;;6.80;99.90;;;;;;5049974;27;20107;-78
2024/01/31 12:21:28;;;;;;;11.82;10.73;;;6.80;99.90;;;;;;5053699;27;20095;-78
2024/01/31 12:23:54;;;;;;;12.23;11.02;;;6.80;99.90;;;;;;5034380;27;20040;-77
2024/01/31 12:26:20;;;;;;;11.45;10.32;;;6.90;99.90;;;;;;5024970;28;20044;-77
2024/01/31 12:28:55;;;;;;;11.35;10.27;;;6.90;99.90;;;;;;5037325;27;20479;-73
2024/01/31 12:31:22;;;;;;;11.38;10.27;;;6.90;99.90;;;;;;5019763;28;20053;-73
2024/01/31 12:33:48;;;;;;;11.75;10.00;;;6.90;99.90;;;;;;5020180;28;20073;-73
2024/01/31 12:36:14;;;;;;;11.55;10.35;;;6.90;99.90;;;;;;5037300;27;20096;-72
2024/01/31 12:38:40;;;;;;;11.15;9.95;;;6.90;99.90;;;;;;5048868;27;20044;-72
2024/01/31 12:41:05;;;;;;;11.18;10.07;;;7.00;99.90;;;;;;5020947;27;20384;-72
2024/01/31 12:43:31;;;;;;;11.70;10.60;;;7.00;99.90;;;;;;5038369;28;20047;-72
2024/01/31 12:45:58;;;;;;;11.95;10.85;;;7.00;99.90;;;;;;5023760;27;20047;-72
2024/01/31 12:48:25;;;;;;;11.75;10.55;;;7.00;99.90;;;;;;5043167;27;20506;-72
2024/01/31 12:50:55;;;;;;;10.75;9.65;;;7.00;99.90;;;;;;5041061;27;20328;-72
2024/01/31 12:53:21;;;;;;;13.50;12.20;;;7.00;99.90;;;;;;5042139;27;20078;-72